Time;durP1;ratioP1;P1;durP2;ratioP2;P2;SDS_P1;SDS_P2;PMS_P1;PMS_P2;Temp;Humidity;BMP_temperature;BMP_pressure;BME280_temperature;BME280_humidity;BME280_pressure;Samples;Min_cycle;Max_cycle;Signal;HPM_P1;HPM_P2
2021/08/21 00:02:09;;;;;;;16.02;11.90;;;;;;;16.35;75.85;100710.41;8466035;33;20209;-72
2021/08/21 00:07:14;;;;;;;16.95;12.40;;;;;;;16.30;75.51;100715.44;8462224;33;21151;-72
2021/08/21 00:12:17;;;;;;;16.25;12.10;;;;;;;16.15;75.80;100712.38;8465047;33;20669;-72
2021/08/21 00:17:20;;;;;;;18.48;13.60;;;;;;;16.07;76.65;100708.69;8475079;33;20154;-73
2021/08/21 00:22:25;;;;;;;16.55;12.38;;;;;;;15.97;77.37;100721.47;8466549;33;21072;-73
2021/08/21 00:27:28;;;;;;;17.15;12.73;;;;;;;15.95;76.87;100715.34;8463163;33;20145;-73
2021/08/21 00:32:32;;;;;;;19.08;13.23;;;;;;;15.91;77.33;100703.97;8463565;34;20149;-73
2021/08/21 00:37:37;;;;;;;19.52;12.02;;;;;;;15.87;77.70;100711.53;8464947;33;20140;-73
2021/08/21 00:42:40;;;;;;;20.60;13.45;;;;;;;15.79;76.81;100702.44;8465737;33;20576;-73
2021/08/21 00:47:43;;;;;;;15.75;12.35;;;;;;;15.58;77.77;100706.25;8466201;33;20498;-73
2021/08/21 00:52:47;;;;;;;18.48;12.10;;;;;;;15.57;77.36;100709.94;8474135;33;20428;-73
2021/08/21 00:57:51;;;;;;;16.80;11.48;;;;;;;15.56;76.91;100704.72;8470055;33;20137;-73
2021/08/21 01:02:55;;;;;;;13.90;9.68;;;;;;;15.40;77.30;100710.75;8469165;34;20475;-73
2021/08/21 01:08:00;;;;;;;13.93;10.27;;;;;;;15.21;78.38;100700.81;8466809;33;20442;-72
2021/08/21 01:13:09;;;;;;;14.60;9.65;;;;;;;15.25;78.48;100702.22;8469441;34;20935;-72
2021/08/21 01:18:12;;;;;;;13.50;9.52;;;;;;;15.36;77.35;100710.19;8470482;33;20412;-73
2021/08/21 01:23:17;;;;;;;14.80;10.02;;;;;;;15.27;76.61;100706.47;8469961;33;20465;-72
2021/08/21 01:28:39;;;;;;;12.93;9.77;;;;;;;15.20;76.51;100710.78;8468407;34;20233;-72
2021/08/21 01:34:01;;;;;;;16.17;10.57;;;;;;;15.19;76.77;100702.78;8468052;33;20545;-72
2021/08/21 01:39:04;;;;;;;13.82;10.00;;;;;;;15.13;76.95;100706.09;8468776;34;20437;-72
2021/08/21 01:44:19;;;;;;;13.55;10.23;;;;;;;15.06;77.11;100705.84;8467514;33;20428;-72
2021/08/21 01:49:24;;;;;;;14.57;10.43;;;;;;;15.03;76.43;100704.28;8474257;33;20145;-72
2021/08/21 01:54:35;;;;;;;13.88;10.63;;;;;;;14.97;76.40;100709.38;8481078;34;21076;-73
2021/08/21 01:59:42;;;;;;;14.27;10.40;;;;;;;15.01;76.26;100708.97;8481253;34;20433;-72
2021/08/21 02:05:09;;;;;;;15.32;10.27;;;;;;;14.92;76.23;100706.25;8479367;33;20179;-72
2021/08/21 02:10:13;;;;;;;16.17;11.48;;;;;;;14.73;76.49;100716.13;8487141;33;20435;-72
2021/08/21 02:15:18;;;;;;;14.13;10.18;;;;;;;14.60;76.92;100712.84;8486328;33;20274;-72
2021/08/21 02:20:26;;;;;;;15.82;10.98;;;;;;;14.57;78.06;100724.81;8486310;34;20452;-73
2021/08/21 02:25:31;;;;;;;17.90;11.23;;;;;;;14.60;77.87;100729.94;8485478;33;20156;-72
2021/08/21 02:30:38;;;;;;;14.85;10.50;;;;;;;14.48;78.60;100728.38;8486251;34;20153;-72
2021/08/21 02:35:41;;;;;;;16.45;11.10;;;;;;;14.44;78.66;100723.38;8490113;33;20241;-72
2021/08/21 02:40:45;;;;;;;18.00;11.35;;;;;;;14.42;78.63;100722.66;8491586;34;20448;-71
2021/08/21 02:45:49;;;;;;;17.17;11.27;;;;;;;14.45;79.31;100720.50;8487880;33;20491;-73
2021/08/21 02:50:53;;;;;;;17.48;11.63;;;;;;;14.51;78.87;100724.53;8487075;34;20141;-73
2021/08/21 02:55:56;;;;;;;19.13;11.60;;;;;;;14.60;78.85;100721.81;8484798;34;20288;-73
2021/08/21 03:01:02;;;;;;;15.15;10.68;;;;;;;14.71;78.67;100719.97;8487833;34;20529;-74
2021/08/21 03:06:06;;;;;;;15.73;10.45;;;;;;;14.70;78.23;100726.34;8478132;34;20928;-73
2021/08/21 03:11:12;;;;;;;15.95;10.82;;;;;;;14.75;77.78;100729.50;8471941;34;20432;-72
2021/08/21 03:16:42;;;;;;;17.42;11.40;;;;;;;14.80;77.85;100725.34;8471231;34;20164;-72
2021/08/21 03:21:46;;;;;;;16.13;10.65;;;;;;;14.78;77.48;100718.38;8470794;34;20428;-72
2021/08/21 03:26:53;;;;;;;17.42;10.77;;;;;;;14.88;77.41;100723.78;8470903;34;20149;-72
2021/08/21 03:31:57;;;;;;;16.83;10.60;;;;;;;14.94;77.56;100725.91;8468287;33;20225;-72
2021/08/21 03:37:00;;;;;;;16.33;11.05;;;;;;;14.88;77.19;100718.38;8467182;33;20500;-73
2021/08/21 03:42:07;;;;;;;15.43;10.15;;;;;;;14.92;77.35;100725.19;8470320;34;20470;-73
2021/08/21 03:47:13;;;;;;;17.15;10.95;;;;;;;14.89;77.21;100720.97;8479000;33;20173;-73
2021/08/21 03:52:16;;;;;;;14.77;10.02;;;;;;;14.98;77.62;100721.94;8482655;33;20449;-73
2021/08/21 03:57:19;;;;;;;16.35;10.00;;;;;;;15.04;77.02;100718.66;8471602;34;20981;-73
2021/08/21 04:02:24;;;;;;;16.05;10.88;;;;;;;14.96;77.22;100721.22;8469041;34;20431;-73
2021/08/21 04:07:27;;;;;;;15.73;10.25;;;;;;;15.01;77.42;100724.34;8468492;34;20602;-73
2021/08/21 04:12:30;;;;;;;14.98;10.20;;;;;;;14.93;77.25;100727.78;8463049;34;20433;-73
2021/08/21 04:17:47;;;;;;;15.05;10.30;;;;;;;14.87;77.15;100722.09;8461149;34;20179;-73
2021/08/21 04:22:52;;;;;;;18.58;11.60;;;;;;;14.88;77.27;100734.63;8462299;33;20462;-73
2021/08/21 04:27:55;;;;;;;16.98;11.57;;;;;;;14.88;77.60;100726.50;8462754;34;20521;-73
2021/08/21 04:33:00;;;;;;;18.40;11.50;;;;;;;14.88;77.57;100738.16;8462858;34;20559;-73
2021/08/21 04:38:03;;;;;;;19.60;11.38;;;;;;;14.89;77.42;100729.06;8477527;27;20235;-71
2021/08/21 04:43:12;;;;;;;16.83;11.23;;;;;;;14.86;77.49;100728.50;8466886;33;20411;-72
2021/08/21 04:48:17;;;;;;;16.52;11.77;;;;;;;14.71;77.36;100728.09;8447449;34;20408;-72
2021/08/21 04:53:24;;;;;;;16.08;10.07;;;;;;;14.60;78.20;100742.59;8425177;34;20139;-72
2021/08/21 04:58:27;;;;;;;16.10;11.02;;;;;;;14.60;78.01;100743.44;8428287;34;20594;-72
2021/08/21 05:03:31;;;;;;;14.70;10.45;;;;;;;14.58;78.13;100750.84;8425005;34;20149;-72
2021/08/21 05:08:35;;;;;;;15.48;10.90;;;;;;;14.66;77.96;100757.38;8419666;34;20477;-73
2021/08/21 05:13:38;;;;;;;16.42;9.80;;;;;;;14.73;77.79;100758.53;8410195;34;20497;-72
2021/08/21 05:18:47;;;;;;;20.80;11.50;;;;;;;14.70;77.49;100754.28;8432313;34;20153;-74
2021/08/21 05:23:56;;;;;;;15.88;10.77;;;;;;;14.65;77.55;100756.53;8410111;34;20408;-72
2021/08/21 05:29:00;;;;;;;17.40;10.98;;;;;;;14.70;77.38;100764.22;8410879;34;21019;-72
2021/08/21 05:34:04;;;;;;;18.85;11.63;;;;;;;14.79;77.40;100763.38;8411735;34;20155;-72
2021/08/21 05:39:10;;;;;;;20.88;11.05;;;;;;;14.82;77.31;100754.97;8412606;34;20474;-72
2021/08/21 05:44:13;;;;;;;18.70;11.43;;;;;;;14.91;76.82;100762.22;8420822;34;20975;-71
2021/08/21 05:49:18;;;;;;;17.33;11.95;;;;;;;14.83;77.22;100776.44;8425687;34;20819;-71
2021/08/21 05:54:21;;;;;;;18.70;10.90;;;;;;;14.88;77.44;100775.19;8426638;34;20146;-72
2021/08/21 05:59:24;;;;;;;17.92;11.27;;;;;;;15.09;77.19;100775.03;8431738;34;20658;-72
2021/08/21 06:04:28;;;;;;;18.35;11.23;;;;;;;15.29;76.92;100783.97;8431989;34;20253;-72
2021/08/21 06:09:32;;;;;;;17.98;11.63;;;;;;;15.41;76.31;100780.13;8430544;34;20312;-73
2021/08/21 06:14:38;;;;;;;13.35;8.55;;;;;;;15.56;76.25;100777.81;8434167;34;20150;-72
2021/08/21 06:19:43;;;;;;;15.88;9.65;;;;;;;15.87;75.63;100778.38;8431801;34;20460;-72
2021/08/21 06:24:46;;;;;;;14.70;10.13;;;;;;;16.20;74.19;100776.09;8432177;34;20162;-72
2021/08/21 06:29:48;;;;;;;12.23;7.45;;;;;;;16.49;73.62;100778.66;8430423;34;20428;-72
2021/08/21 06:34:53;;;;;;;13.55;9.40;;;;;;;16.55;72.78;100772.59;8421836;34;20605;-72
2021/08/21 06:39:56;;;;;;;20.60;12.40;;;;;;;16.68;72.68;100764.09;8417338;34;20230;-72
2021/08/21 06:44:59;;;;;;;16.85;10.73;;;;;;;17.16;71.57;100757.41;8418145;34;20189;-73
2021/08/21 06:50:06;;;;;;;19.92;12.70;;;;;;;17.27;70.78;100768.00;8414911;34;20182;-72
2021/08/21 06:55:10;;;;;;;14.13;9.73;;;;;;;17.32;70.06;100768.38;8414656;34;20670;-74
2021/08/21 07:00:33;;;;;;;12.77;8.70;;;;;;;17.45;69.84;100765.25;8413634;34;20718;-74
2021/08/21 07:05:38;;;;;;;18.23;12.10;;;;;;;17.69;69.53;100767.25;8413368;34;20138;-72
2021/08/21 07:10:41;;;;;;;19.48;11.43;;;;;;;18.16;69.21;100765.97;8415376;34;20639;-72
2021/08/21 07:15:44;;;;;;;17.83;11.52;;;;;;;18.69;67.16;100767.44;8414033;34;20458;-73
2021/08/21 07:20:49;;;;;;;18.30;11.32;;;;;;;18.60;66.67;100766.56;8414130;34;20510;-75
2021/08/21 07:25:52;;;;;;;25.88;12.48;;;;;;;18.75;66.91;100767.59;8425924;34;20269;-73
2021/08/21 07:30:55;;;;;;;19.45;11.23;;;;;;;18.92;66.19;100770.38;8428425;34;20506;-72
2021/08/21 07:35:59;;;;;;;17.65;11.35;;;;;;;19.01;65.67;100769.38;8417040;34;21159;-74
2021/08/21 07:41:03;;;;;;;19.20;12.23;;;;;;;18.98;65.82;100770.56;8414870;34;20441;-73
2021/08/21 07:46:06;;;;;;;18.55;11.98;;;;;;;19.57;63.96;100772.22;8414721;34;20571;-72
2021/08/21 07:51:10;;;;;;;17.83;11.63;;;;;;;20.38;62.48;100775.66;8414076;34;20450;-72
2021/08/21 07:56:13;;;;;;;19.05;12.07;;;;;;;20.25;61.56;100777.06;8412925;34;20577;-72
2021/08/21 08:01:17;;;;;;;19.48;13.15;;;;;;;20.22;61.80;100780.16;8413987;34;20927;-72
2021/08/21 08:06:21;;;;;;;20.67;12.25;;;;;;;20.27;62.10;100777.75;8412533;34;20146;-73
2021/08/21 08:11:24;;;;;;;18.80;11.35;;;;;;;20.47;61.80;100780.91;8412011;34;20430;-72
2021/08/21 08:16:27;;;;;;;15.00;10.07;;;;;;;20.53;61.26;100776.59;8412600;34;20479;-75
2021/08/21 08:21:32;;;;;;;18.92;10.70;;;;;;;20.91;60.06;100790.31;8412117;34;20559;-72
2021/08/21 08:26:35;;;;;;;17.45;10.77;;;;;;;21.55;59.18;100768.06;8394977;34;20155;-72
2021/08/21 08:31:38;;;;;;;20.25;11.13;;;;;;;22.28;56.81;100774.56;8355487;34;20567;-73
2021/08/21 08:36:42;;;;;;;16.27;10.63;;;;;;;21.79;56.35;100767.00;8349373;34;20147;-72
2021/08/21 08:41:47;;;;;;;16.88;11.57;;;;;;;21.58;56.84;100778.63;8345882;34;20255;-72
2021/08/21 08:46:51;;;;;;;17.77;10.10;;;;;;;21.39;56.06;100772.69;8345985;34;21158;-74
2021/08/21 08:51:56;;;;;;;22.90;12.80;;;;;;;21.40;56.13;100779.84;8352119;34;20431;-73
2021/08/21 08:56:59;;;;;;;16.15;10.85;;;;;;;21.00;56.97;100784.59;8352146;34;20503;-72
2021/08/21 09:02:02;;;;;;;14.05;8.68;;;;;;;21.42;55.31;100777.78;8354452;34;20302;-72
2021/08/21 09:07:10;;;;;;;12.80;7.72;;;;;;;21.72;54.48;100786.00;8350692;34;20545;-73
2021/08/21 09:12:24;;;;;;;10.18;7.05;;;;;;;22.25;54.71;100781.28;8347781;34;20498;-73
2021/08/21 09:17:27;;;;;;;12.18;6.97;;;;;;;22.50;52.07;100779.06;8352969;34;20154;-72
2021/08/21 09:22:31;;;;;;;9.30;6.38;;;;;;;22.76;51.59;100781.25;8360238;34;20143;-73
2021/08/21 09:27:34;;;;;;;8.18;6.03;;;;;;;22.24;53.05;100785.06;8370494;34;20566;-72
2021/08/21 09:32:37;;;;;;;13.43;9.07;;;;;;;22.20;54.69;100778.25;8371432;34;20769;-69
2021/08/21 09:37:52;;;;;;;12.45;8.57;;;;;;;23.36;52.07;100780.94;8370542;34;21022;-71
2021/08/21 09:42:56;;;;;;;12.93;8.88;;;;;;;23.49;51.40;100772.84;8373903;34;20872;-72
2021/08/21 09:48:02;;;;;;;11.95;9.07;;;;;;;23.11;51.23;100775.06;8375904;34;20536;-71
2021/08/21 09:53:08;;;;;;;11.63;7.82;;;;;;;22.58;51.18;100780.00;8370776;34;20237;-72
2021/08/21 09:58:16;;;;;;;10.35;6.95;;;;;;;22.86;52.05;100778.19;8365977;34;20427;-72
2021/08/21 10:03:19;;;;;;;11.57;8.02;;;;;;;22.93;50.66;100773.63;8367600;34;20182;-71
2021/08/21 10:08:27;;;;;;;9.35;6.53;;;;;;;22.88;52.29;100778.84;8358213;34;20153;-71
2021/08/21 10:13:33;;;;;;;11.05;6.50;;;;;;;22.69;51.81;100772.13;8356404;34;20545;-71
2021/08/21 10:18:36;;;;;;;8.25;5.97;;;;;;;22.65;52.63;100765.31;8355272;34;20445;-71
2021/08/21 10:23:45;;;;;;;10.80;7.70;;;;;;;22.61;51.18;100774.13;8356806;34;20537;-72
2021/08/21 10:28:49;;;;;;;9.32;6.28;;;;;;;22.35;53.40;100764.53;8352844;34;20166;-72
2021/08/21 10:33:55;;;;;;;10.65;7.55;;;;;;;22.64;52.34;100762.78;8354915;34;20294;-72
2021/08/21 10:39:14;;;;;;;9.27;7.10;;;;;;;22.75;52.22;100765.00;8425191;28;20868;-72
2021/08/21 10:44:41;;;;;;;10.43;7.90;;;;;;;23.31;52.31;100769.72;8465377;33;20569;-72
2021/08/21 10:49:48;;;;;;;17.13;10.60;;;;;;;23.42;51.66;100756.34;8467049;33;20437;-71
2021/08/21 10:54:53;;;;;;;10.10;7.55;;;;;;;23.50;51.57;100758.06;8465494;33;20546;-72
2021/08/21 10:59:56;;;;;;;12.32;8.75;;;;;;;23.14;50.95;100750.00;8470728;33;20179;-72
2021/08/21 11:05:01;;;;;;;11.07;8.30;;;;;;;23.49;51.98;100748.16;8470230;33;20425;-71
2021/08/21 11:10:17;;;;;;;8.38;6.28;;;;;;;23.69;50.25;100748.28;8470438;33;20295;-71
2021/08/21 11:15:23;;;;;;;13.50;8.23;;;;;;;24.04;49.92;100745.53;8468694;34;20164;-72
2021/08/21 11:20:29;;;;;;;11.68;8.93;;;;;;;24.01;49.81;100743.19;8470690;33;20141;-71
2021/08/21 11:25:34;;;;;;;12.27;7.22;;;;;;;24.13;49.54;100733.31;8469470;33;20520;-71
2021/08/21 11:30:39;;;;;;;11.27;6.90;;;;;;;24.04;49.36;100732.66;8467344;33;20983;-72
2021/08/21 11:35:51;;;;;;;7.55;5.45;;;;;;;23.73;49.88;100732.28;8467681;33;20873;-71
2021/08/21 11:40:58;;;;;;;6.95;6.05;;;;;;;23.52;51.33;100731.31;8469278;34;20951;-71
2021/08/21 11:46:03;;;;;;;9.98;6.25;;;;;;;23.39;52.15;100723.00;8466468;33;20341;-71
2021/08/21 11:51:07;;;;;;;8.13;7.05;;;;;;;23.36;51.11;100724.22;8467091;33;20404;-72
2021/08/21 11:56:15;;;;;;;8.55;6.10;;;;;;;23.64;49.73;100723.34;8469287;33;20483;-71
2021/08/21 12:01:21;;;;;;;8.50;6.47;;;;;;;24.26;49.71;100725.13;8466904;34;20244;-72
2021/08/21 12:06:26;;;;;;;7.10;5.93;;;;;;;25.12;45.34;100712.59;8467494;33;20376;-72
2021/08/21 12:11:31;;;;;;;9.32;7.03;;;;;;;25.60;43.83;100710.41;8466949;33;20446;-72
2021/08/21 12:16:36;;;;;;;8.93;6.47;;;;;;;26.12;44.61;100710.44;8466432;34;20248;-74
2021/08/21 12:21:40;;;;;;;6.45;5.72;;;;;;;26.08;41.93;100709.19;8468674;34;20172;-73
2021/08/21 12:26:47;;;;;;;5.22;4.68;;;;;;;24.98;44.69;100717.22;8467764;33;20552;-72
2021/08/21 12:31:50;;;;;;;4.82;4.32;;;;;;;24.76;44.08;100714.69;8469638;33;20680;-72
2021/08/21 12:36:56;;;;;;;5.82;4.40;;;;;;;26.15;43.48;100700.91;8467723;33;20443;-71
2021/08/21 12:42:05;;;;;;;6.75;4.55;;;;;;;27.70;42.22;100694.78;8469546;33;20519;-74
2021/08/21 12:47:17;;;;;;;3.75;3.30;;;;;;;28.34;36.81;100692.50;8478827;33;20442;-70
2021/08/21 12:52:23;;;;;;;3.50;3.20;;;;;;;29.40;36.03;100676.91;8466396;34;20717;-72
2021/08/21 12:57:32;;;;;;;5.03;3.40;;;;;;;29.15;33.67;100672.50;8464940;33;20601;-74
2021/08/21 13:02:44;;;;;;;5.78;3.72;;;;;;;29.78;35.98;100662.53;8464355;33;20512;-76
2021/08/21 13:07:49;;;;;;;4.35;3.90;;;;;;;30.50;34.49;100657.53;8461917;34;20458;-76
2021/08/21 13:12:55;;;;;;;4.07;2.95;;;;;;;30.23;32.59;100652.66;8459138;34;20176;-75
2021/08/21 13:17:59;;;;;;;3.90;3.47;;;;;;;30.36;33.76;100651.47;8464101;34;20150;-76
2021/08/21 13:23:03;;;;;;;3.33;3.03;;;;;;;29.77;33.05;100643.41;8467072;34;20532;-76
2021/08/21 13:28:07;;;;;;;3.10;2.80;;;;;;;29.06;33.24;100637.97;8471869;33;20232;-76
2021/08/21 13:33:10;;;;;;;4.03;3.38;;;;;;;29.73;32.76;100632.00;8470912;33;20492;-75
2021/08/21 13:38:14;;;;;;;3.13;2.83;;;;;;;28.85;35.09;100622.81;8469646;33;20236;-74
2021/08/21 13:43:18;;;;;;;3.85;2.90;;;;;;;29.11;35.63;100620.69;8467941;34;20673;-74
2021/08/21 13:48:21;;;;;;;3.50;3.20;;;;;;;29.78;32.14;100621.00;8467680;33;21175;-72
2021/08/21 13:53:24;;;;;;;4.90;2.92;;;;;;;29.31;33.61;100612.81;8464680;33;20935;-74
2021/08/21 13:58:31;;;;;;;2.83;2.63;;;;;;;29.20;32.61;100599.00;8469243;33;20149;-73
2021/08/21 14:03:34;;;;;;;3.35;3.03;;;;;;;29.68;32.86;100600.63;8468423;33;20177;-74
2021/08/21 14:08:37;;;;;;;2.90;2.60;;;;;;;28.83;32.72;100597.34;8462644;33;20134;-73
2021/08/21 14:13:41;;;;;;;3.83;3.03;;;;;;;29.58;32.88;100595.66;8458489;33;20244;-73
2021/08/21 14:18:44;;;;;;;3.08;2.85;;;;;;;30.20;32.93;100590.28;8457764;33;20532;-71
2021/08/21 14:23:47;;;;;;;3.13;2.78;;;;;;;29.74;31.48;100591.31;8457180;34;21017;-71
2021/08/21 14:28:52;;;;;;;2.90;2.70;;;;;;;27.73;33.46;100589.47;8404825;33;20577;-72
2021/08/21 14:33:55;;;;;;;3.30;3.10;;;;;;;27.63;34.02;100589.19;8407319;34;20216;-72
2021/08/21 14:38:58;;;;;;;3.47;3.17;;;;;;;27.63;34.06;100584.50;8411071;34;20154;-71
2021/08/21 14:44:02;;;;;;;3.80;3.10;;;;;;;27.86;34.23;100578.22;8408839;34;20197;-73
2021/08/21 14:49:06;;;;;;;3.00;2.80;;;;;;;27.38;34.98;100588.19;8408106;34;20564;-73
2021/08/21 14:54:09;;;;;;;3.70;2.88;;;;;;;27.62;34.22;100580.09;8405261;34;20307;-72
2021/08/21 14:59:15;;;;;;;4.43;3.05;;;;;;;27.63;35.55;100575.41;8407637;34;20635;-73
2021/08/21 15:04:18;;;;;;;3.55;2.95;;;;;;;28.88;32.72;100574.47;8411007;34;20935;-74
2021/08/21 15:09:21;;;;;;;3.60;2.72;;;;;;;28.55;33.18;100558.50;8409283;34;20437;-72
2021/08/21 15:14:26;;;;;;;2.75;2.55;;;;;;;28.39;34.27;100560.06;8409557;34;20526;-73
2021/08/21 15:19:29;;;;;;;3.13;2.40;;;;;;;27.99;33.14;100569.78;8407325;34;20596;-72
2021/08/21 15:24:34;;;;;;;2.95;2.50;;;;;;;26.67;35.19;100559.25;8406479;34;20300;-73
2021/08/21 15:29:41;;;;;;;4.07;2.90;;;;;;;26.07;37.76;100564.38;8408217;34;20620;-73
2021/08/21 15:34:46;;;;;;;3.50;3.20;;;;;;;25.80;38.46;100567.31;8403790;34;20530;-73
2021/08/21 15:39:49;;;;;;;3.30;3.00;;;;;;;25.95;39.87;100564.25;8408537;34;20659;-73
2021/08/21 15:44:53;;;;;;;3.65;2.67;;;;;;;25.93;40.21;100551.78;8415226;34;20269;-73
2021/08/21 15:49:56;;;;;;;4.65;2.95;;;;;;;25.72;41.15;100558.47;8414384;34;20458;-73
2021/08/21 15:54:59;;;;;;;3.08;2.78;;;;;;;25.40;42.10;100552.91;8406149;34;20451;-73
2021/08/21 16:00:05;;;;;;;3.63;2.97;;;;;;;25.17;42.24;100553.41;8406740;34;20596;-73
2021/08/21 16:05:09;;;;;;;3.75;3.03;;;;;;;25.00;43.61;100549.41;8410425;34;20437;-73
2021/08/21 16:10:13;;;;;;;3.33;3.03;;;;;;;24.79;44.85;100553.25;8451289;34;20466;-73
2021/08/21 16:15:17;;;;;;;4.38;2.85;;;;;;;24.59;45.03;100547.81;8471867;33;20270;-71
2021/08/21 16:20:22;;;;;;;5.22;3.40;;;;;;;24.50;45.52;100533.47;8471235;34;20522;-72
2021/08/21 16:25:25;;;;;;;3.70;3.05;;;;;;;24.39;45.03;100545.06;8470360;34;21177;-72
2021/08/21 16:30:31;;;;;;;4.53;3.15;;;;;;;24.37;44.90;100531.53;8470362;33;20491;-72
2021/08/21 16:35:36;;;;;;;5.00;3.70;;;;;;;24.20;46.04;100536.59;8469254;33;20588;-72
2021/08/21 16:40:39;;;;;;;3.53;3.17;;;;;;;23.96;45.92;100531.72;8449913;27;20529;-71
2021/08/21 16:45:45;;;;;;;4.03;3.40;;;;;;;23.79;46.38;100528.53;8406984;34;20930;-71
2021/08/21 16:50:48;;;;;;;3.67;3.05;;;;;;;23.73;46.68;100521.13;8409346;34;20707;-71
2021/08/21 16:55:51;;;;;;;3.20;2.90;;;;;;;23.60;48.07;100522.75;8410267;34;20515;-71
2021/08/21 17:00:55;;;;;;;4.13;3.72;;;;;;;23.44;47.63;100523.97;8410458;34;20244;-71
2021/08/21 17:05:58;;;;;;;4.20;3.35;;;;;;;23.28;47.30;100513.38;8435720;34;20422;-71
2021/08/21 17:11:01;;;;;;;5.18;3.58;;;;;;;23.13;47.97;100512.69;8438566;34;20474;-71
2021/08/21 17:16:07;;;;;;;4.93;3.60;;;;;;;23.01;48.54;100504.19;8432909;33;20451;-71
2021/08/21 17:21:10;;;;;;;7.53;4.00;;;;;;;22.90;49.17;100499.25;8424248;34;20153;-72
2021/08/21 17:26:13;;;;;;;5.05;4.38;;;;;;;22.74;49.86;100495.81;8408002;34;20522;-72
2021/08/21 17:31:18;;;;;;;5.25;4.05;;;;;;;22.63;49.46;100495.56;8434058;33;20526;-71
2021/08/21 17:36:21;;;;;;;4.68;3.60;;;;;;;22.50;50.47;100497.16;8433440;34;20150;-71
2021/08/21 17:41:25;;;;;;;7.93;4.30;;;;;;;22.31;51.07;100492.34;8427822;33;20683;-71
2021/08/21 17:46:30;;;;;;;5.15;4.57;;;;;;;22.16;51.20;100497.94;8410019;34;20146;-71
2021/08/21 17:51:33;;;;;;;6.18;4.28;;;;;;;22.09;51.98;100499.75;8411266;34;20334;-72
2021/08/21 17:56:38;;;;;;;5.43;4.35;;;;;;;22.02;52.00;100493.38;8412105;34;20444;-72
2021/08/21 18:01:42;;;;;;;4.82;4.40;;;;;;;21.95;50.78;100498.78;8410133;34;20539;-72
2021/08/21 18:06:46;;;;;;;5.38;4.63;;;;;;;21.88;52.49;100498.69;8410241;34;20236;-71
2021/08/21 18:11:49;;;;;;;5.15;4.65;;;;;;;21.75;52.60;100493.13;8417932;34;20240;-72
2021/08/21 18:16:53;;;;;;;5.72;4.93;;;;;;;21.66;52.68;100494.25;8424871;34;20239;-72
2021/08/21 18:21:56;;;;;;;5.75;4.63;;;;;;;21.59;52.44;100499.66;8441650;33;20989;-72
2021/08/21 18:26:59;;;;;;;4.97;4.57;;;;;;;21.52;52.59;100493.28;8444058;34;20474;-72
2021/08/21 18:32:05;;;;;;;5.65;4.68;;;;;;;21.43;52.71;100497.16;8435168;34;20512;-71
2021/08/21 18:37:08;;;;;;;5.80;4.55;;;;;;;21.35;53.01;100495.41;8439991;33;20459;-71
2021/08/21 18:42:13;;;;;;;5.22;4.15;;;;;;;21.19;53.60;100498.34;8435928;34;20488;-71
2021/08/21 18:47:18;;;;;;;5.72;4.40;;;;;;;21.04;54.33;100500.28;8410858;34;20552;-73
2021/08/21 18:52:21;;;;;;;4.53;4.10;;;;;;;20.94;54.83;100495.06;8406741;34;20272;-72
2021/08/21 18:57:24;;;;;;;5.40;4.90;;;;;;;20.88;54.82;100502.13;8401606;34;21361;-72
2021/08/21 19:02:29;;;;;;;9.50;5.43;;;;;;;20.78;55.22;100491.50;8402876;34;20564;-72
2021/08/21 19:07:32;;;;;;;5.97;5.32;;;;;;;20.64;56.00;100500.53;8403544;34;20184;-73
2021/08/21 19:12:36;;;;;;;5.82;5.13;;;;;;;20.55;57.33;100493.47;8408564;34;20462;-72
2021/08/21 19:17:41;;;;;;;5.95;5.25;;;;;;;20.46;56.64;100498.19;8433102;34;20480;-72
2021/08/21 19:22:44;;;;;;;7.47;6.13;;;;;;;20.45;56.98;100499.19;8439358;34;20454;-72
2021/08/21 19:27:49;;;;;;;6.65;4.90;;;;;;;20.52;57.24;100493.84;8439978;33;20536;-73
2021/08/21 19:32:54;;;;;;;5.63;4.95;;;;;;;20.50;57.03;100496.75;8440725;33;20866;-72
2021/08/21 19:37:57;;;;;;;5.63;4.90;;;;;;;20.47;57.43;100497.13;8428840;34;20662;-71
2021/08/21 19:43:00;;;;;;;6.30;4.97;;;;;;;20.46;57.45;100494.56;8444076;34;20543;-72
2021/08/21 19:48:05;;;;;;;6.13;5.53;;;;;;;20.45;57.42;100490.16;8460833;33;20420;-71
2021/08/21 19:53:10;;;;;;;6.80;5.40;;;;;;;20.45;57.54;100492.91;8459754;34;20944;-71
2021/08/21 19:58:13;;;;;;;5.78;4.95;;;;;;;20.44;57.38;100492.06;8440873;33;20217;-73
2021/08/21 20:03:18;;;;;;;6.28;5.35;;;;;;;20.44;57.65;100491.22;8439407;34;20888;-73
2021/08/21 20:08:21;;;;;;;6.13;5.20;;;;;;;20.32;57.83;100488.06;8436126;33;20157;-74
2021/08/21 20:13:24;;;;;;;5.40;4.50;;;;;;;20.28;57.80;100479.38;8434738;34;21129;-72
2021/08/21 20:18:29;;;;;;;6.25;5.40;;;;;;;20.23;57.74;100480.97;8431630;33;20443;-72
2021/08/21 20:23:32;;;;;;;6.22;5.13;;;;;;;20.16;58.16;100480.00;8433351;34;20145;-72
2021/08/21 20:28:35;;;;;;;6.30;4.82;;;;;;;20.10;58.15;100476.16;8412101;34;20480;-72
2021/08/21 20:33:40;;;;;;;6.43;5.73;;;;;;;20.02;58.91;100470.78;8456011;33;20484;-73
2021/08/21 20:38:43;;;;;;;8.23;5.93;;;;;;;19.99;58.80;100461.06;8459773;33;20158;-73
2021/08/21 20:43:46;;;;;;;7.15;5.95;;;;;;;19.95;58.72;100454.31;8461956;33;20169;-72
2021/08/21 20:48:51;;;;;;;7.07;5.30;;;;;;;19.82;59.45;100456.81;8461354;33;20152;-72
2021/08/21 20:53:54;;;;;;;8.23;5.18;;;;;;;19.70;59.54;100452.84;8462705;33;20555;-72
2021/08/21 20:58:57;;;;;;;9.82;6.38;;;;;;;19.64;59.90;100443.50;8462042;33;21126;-72
2021/08/21 21:04:02;;;;;;;7.97;6.53;;;;;;;19.65;60.44;100448.75;8455841;33;20636;-71
2021/08/21 21:09:05;;;;;;;9.88;6.40;;;;;;;19.58;60.68;100453.28;8457875;33;20462;-72
2021/08/21 21:14:08;;;;;;;6.60;5.50;;;;;;;19.55;60.82;100447.28;8459608;34;20569;-72
2021/08/21 21:19:14;;;;;;;8.52;5.57;;;;;;;19.50;60.89;100434.22;8460718;33;20236;-75
2021/08/21 21:24:18;;;;;;;7.32;5.45;;;;;;;19.36;61.22;100424.09;8474988;33;20160;-72
2021/08/21 21:29:39;;;;;;;6.78;5.53;;;;;;;19.26;61.71;100431.66;8455597;33;21025;-72
2021/08/21 21:34:43;;;;;;;7.28;5.40;;;;;;;19.10;62.03;100430.72;8421153;34;20252;-72
2021/08/21 21:39:46;;;;;;;6.50;5.88;;;;;;;18.99;62.86;100433.88;8407947;34;20241;-72
2021/08/21 21:44:49;;;;;;;10.00;5.82;;;;;;;18.72;63.45;100437.88;8404522;34;20280;-72
2021/08/21 21:49:53;;;;;;;6.93;6.28;;;;;;;18.59;64.33;100441.13;8403343;34;20185;-72
2021/08/21 21:54:58;;;;;;;8.90;6.07;;;;;;;18.44;64.86;100432.03;8398141;34;20427;-72
2021/08/21 22:00:01;;;;;;;12.18;5.90;;;;;;;18.32;65.28;100424.25;8400168;34;20177;-72
2021/08/21 22:05:15;;;;;;;8.88;5.63;;;;;;;18.30;65.53;100434.44;8397873;34;20432;-72
2021/08/21 22:10:18;;;;;;;8.65;6.35;;;;;;;18.28;65.61;100420.16;8396909;34;20158;-72
2021/08/21 22:15:22;;;;;;;7.95;6.03;;;;;;;18.31;65.45;100419.81;8397823;34;20418;-72
2021/08/21 22:20:30;;;;;;;10.45;6.53;;;;;;;18.38;65.59;100400.09;8401532;34;20139;-72
2021/08/21 22:25:33;;;;;;;10.57;7.32;;;;;;;18.39;65.44;100399.06;8403325;34;20245;-72
2021/08/21 22:30:42;;;;;;;9.00;6.72;;;;;;;18.34;65.43;100394.13;8404233;34;20420;-72
2021/08/21 22:35:47;;;;;;;9.10;6.45;;;;;;;18.28;65.28;100390.25;8408599;34;20209;-72
2021/08/21 22:40:50;;;;;;;8.68;6.78;;;;;;;18.14;65.32;100389.09;8455589;28;20575;-72
2021/08/21 22:45:53;;;;;;;9.75;6.70;;;;;;;18.03;65.46;100372.31;8463230;33;20686;-72
2021/08/21 22:50:58;;;;;;;9.90;7.13;;;;;;;17.96;66.00;100379.41;8462632;33;20391;-72
2021/08/21 22:56:02;;;;;;;8.00;7.18;;;;;;;17.95;66.04;100377.72;8419469;33;20660;-72
2021/08/21 23:01:05;;;;;;;10.93;7.18;;;;;;;17.79;65.84;100374.00;8402168;34;20714;-72
2021/08/21 23:06:10;;;;;;;11.93;6.60;;;;;;;17.75;65.81;100359.09;8400808;34;20538;-71
2021/08/21 23:11:13;;;;;;;9.85;6.80;;;;;;;17.75;66.19;100355.53;8401486;34;20543;-72
2021/08/21 23:16:16;;;;;;;7.88;5.88;;;;;;;17.78;65.97;100347.03;8398938;34;20463;-72
2021/08/21 23:21:20;;;;;;;12.48;7.57;;;;;;;17.72;65.97;100347.69;8399650;34;20147;-72
2021/08/21 23:26:23;;;;;;;8.93;6.55;;;;;;;17.76;65.51;100335.47;8403139;34;20589;-72